sensor_id;sensor_type;location;lat;lon;timestamp;P1;durP1;ratioP1;P2;durP2;ratioP2
52798;SDS011;38667;42.872;74.622;2023-04-25T00:01:43;11.98;;;4.50;;
52798;SDS011;38667;42.872;74.622;2023-04-25T00:04:09;21.08;;;5.63;;
52798;SDS011;38667;42.872;74.622;2023-04-25T00:06:35;20.50;;;9.70;;
52798;SDS011;38667;42.872;74.622;2023-04-25T00:09:02;21.33;;;9.57;;
52798;SDS011;38667;42.872;74.622;2023-04-25T00:11:28;23.92;;;10.65;;
52798;SDS011;38667;42.872;74.622;2023-04-25T00:13:56;23.73;;;10.40;;
52798;SDS011;38667;42.872;74.622;2023-04-25T00:16:22;22.27;;;10.88;;
52798;SDS011;38667;42.872;74.622;2023-04-25T00:18:48;26.92;;;10.57;;
52798;SDS011;38667;42.872;74.622;2023-04-25T00:21:15;29.23;;;13.00;;
52798;SDS011;38667;42.872;74.622;2023-04-25T00:23:41;29.13;;;12.77;;
52798;SDS011;38667;42.872;74.622;2023-04-25T00:26:07;28.63;;;12.55;;
52798;SDS011;38667;42.872;74.622;2023-04-25T00:28:34;34.58;;;13.32;;
52798;SDS011;38667;42.872;74.622;2023-04-25T00:31:01;30.90;;;14.45;;
52798;SDS011;38667;42.872;74.622;2023-04-25T00:33:28;33.90;;;14.18;;
52798;SDS011;38667;42.872;74.622;2023-04-25T00:35:54;25.63;;;12.48;;
52798;SDS011;38667;42.872;74.622;2023-04-25T00:38:21;20.65;;;10.45;;
52798;SDS011;38667;42.872;74.622;2023-04-25T00:40:47;20.13;;;8.77;;
52798;SDS011;38667;42.872;74.622;2023-04-25T00:43:14;22.73;;;8.98;;
52798;SDS011;38667;42.872;74.622;2023-04-25T00:45:40;15.52;;;8.75;;
52798;SDS011;38667;42.872;74.622;2023-04-25T00:48:09;9.57;;;4.97;;
52798;SDS011;38667;42.872;74.622;2023-04-25T00:50:36;10.38;;;5.60;;
52798;SDS011;38667;42.872;74.622;2023-04-25T00:53:03;12.55;;;5.97;;
52798;SDS011;38667;42.872;74.622;2023-04-25T00:55:29;12.30;;;5.30;;
52798;SDS011;38667;42.872;74.622;2023-04-25T00:57:56;16.20;;;6.07;;
52798;SDS011;38667;42.872;74.622;2023-04-25T01:00:22;14.15;;;5.00;;
52798;SDS011;38667;42.872;74.622;2023-04-25T01:02:48;10.85;;;5.50;;
52798;SDS011;38667;42.872;74.622;2023-04-25T01:05:16;21.70;;;5.93;;
52798;SDS011;38667;42.872;74.622;2023-04-25T01:07:43;14.88;;;4.90;;
52798;SDS011;38667;42.872;74.622;2023-04-25T01:10:09;11.45;;;4.82;;
52798;SDS011;38667;42.872;74.622;2023-04-25T01:12:35;8.90;;;4.43;;
52798;SDS011;38667;42.872;74.622;2023-04-25T01:15:02;14.25;;;4.97;;
52798;SDS011;38667;42.872;74.622;2023-04-25T01:17:29;11.30;;;4.82;;
52798;SDS011;38667;42.872;74.622;2023-04-25T01:19:55;16.80;;;4.57;;
52798;SDS011;38667;42.872;74.622;2023-04-25T01:22:23;12.60;;;4.88;;
52798;SDS011;38667;42.872;74.622;2023-04-25T01:24:50;8.40;;;4.13;;
52798;SDS011;38667;42.872;74.622;2023-04-25T01:27:17;15.68;;;4.18;;
52798;SDS011;38667;42.872;74.622;2023-04-25T01:29:44;11.80;;;4.38;;
52798;SDS011;38667;42.872;74.622;2023-04-25T01:32:11;11.80;;;4.30;;
52798;SDS011;38667;42.872;74.622;2023-04-25T01:34:38;9.98;;;3.53;;
52798;SDS011;38667;42.872;74.622;2023-04-25T01:37:05;15.32;;;4.28;;
52798;SDS011;38667;42.872;74.622;2023-04-25T01:39:33;8.73;;;3.60;;
52798;SDS011;38667;42.872;74.622;2023-04-25T01:41:59;12.75;;;3.83;;
52798;SDS011;38667;42.872;74.622;2023-04-25T01:44:26;10.65;;;3.38;;
52798;SDS011;38667;42.872;74.622;2023-04-25T01:46:53;11.50;;;3.95;;
52798;SDS011;38667;42.872;74.622;2023-04-25T01:49:19;9.73;;;3.38;;
52798;SDS011;38667;42.872;74.622;2023-04-25T01:51:46;9.52;;;3.30;;
52798;SDS011;38667;42.872;74.622;2023-04-25T01:54:12;9.65;;;3.47;;
52798;SDS011;38667;42.872;74.622;2023-04-25T01:56:40;11.15;;;3.30;;
52798;SDS011;38667;42.872;74.622;2023-04-25T01:59:07;7.03;;;3.97;;
52798;SDS011;38667;42.872;74.622;2023-04-25T02:01:33;11.40;;;3.35;;
52798;SDS011;38667;42.872;74.622;2023-04-25T02:03:59;9.05;;;2.92;;
52798;SDS011;38667;42.872;74.622;2023-04-25T02:06:26;7.97;;;2.63;;
52798;SDS011;38667;42.872;74.622;2023-04-25T02:08:52;13.00;;;2.90;;
52798;SDS011;38667;42.872;74.622;2023-04-25T02:11:18;7.97;;;2.42;;
52798;SDS011;38667;42.872;74.622;2023-04-25T02:13:46;6.25;;;2.78;;
52798;SDS011;38667;42.872;74.622;2023-04-25T02:16:13;5.70;;;2.25;;
52798;SDS011;38667;42.872;74.622;2023-04-25T02:18:39;11.02;;;2.90;;
52798;SDS011;38667;42.872;74.622;2023-04-25T02:21:05;12.00;;;2.45;;
52798;SDS011;38667;42.872;74.622;2023-04-25T02:23:31;9.93;;;2.70;;
52798;SDS011;38667;42.872;74.622;2023-04-25T02:25:58;7.47;;;3.13;;
52798;SDS011;38667;42.872;74.622;2023-04-25T02:28:24;8.88;;;3.30;;
52798;SDS011;38667;42.872;74.622;2023-04-25T02:30:52;10.02;;;3.65;;
52798;SDS011;38667;42.872;74.622;2023-04-25T02:33:19;12.57;;;3.75;;
52798;SDS011;38667;42.872;74.622;2023-04-25T02:35:45;9.57;;;3.47;;
52798;SDS011;38667;42.872;74.622;2023-04-25T02:38:12;8.98;;;2.70;;
52798;SDS011;38667;42.872;74.622;2023-04-25T02:40:38;7.10;;;2.80;;
52798;SDS011;38667;42.872;74.622;2023-04-25T02:43:04;32.38;;;10.23;;
52798;SDS011;38667;42.872;74.622;2023-04-25T02:45:30;44.20;;;11.50;;
52798;SDS011;38667;42.872;74.622;2023-04-25T02:47:58;34.53;;;11.35;;
52798;SDS011;38667;42.872;74.622;2023-04-25T02:50:25;28.95;;;10.90;;
52798;SDS011;38667;42.872;74.622;2023-04-25T02:52:51;27.02;;;11.93;;
52798;SDS011;38667;42.872;74.622;2023-04-25T02:55:17;28.98;;;12.45;;
52798;SDS011;38667;42.872;74.622;2023-04-25T02:57:44;28.10;;;12.70;;
52798;SDS011;38667;42.872;74.622;2023-04-25T03:00:10;24.83;;;12.20;;
52798;SDS011;38667;42.872;74.622;2023-04-25T03:02:37;23.67;;;10.90;;
52798;SDS011;38667;42.872;74.622;2023-04-25T03:05:05;26.08;;;11.75;;
52798;SDS011;38667;42.872;74.622;2023-04-25T03:07:32;24.10;;;11.05;;
52798;SDS011;38667;42.872;74.622;2023-04-25T03:09:58;19.13;;;9.32;;
52798;SDS011;38667;42.872;74.622;2023-04-25T03:12:25;28.45;;;8.93;;
52798;SDS011;38667;42.872;74.622;2023-04-25T03:14:51;26.52;;;9.25;;
52798;SDS011;38667;42.872;74.622;2023-04-25T03:17:17;24.20;;;9.50;;
52798;SDS011;38667;42.872;74.622;2023-04-25T03:19:44;24.25;;;9.93;;
52798;SDS011;38667;42.872;74.622;2023-04-25T03:22:11;17.60;;;8.65;;
52798;SDS011;38667;42.872;74.622;2023-04-25T03:24:38;23.08;;;8.68;;
52798;SDS011;38667;42.872;74.622;2023-04-25T03:27:04;46.33;;;9.38;;
52798;SDS011;38667;42.872;74.622;2023-04-25T03:29:30;23.45;;;8.65;;
52798;SDS011;38667;42.872;74.622;2023-04-25T03:31:57;28.95;;;10.35;;
52798;SDS011;38667;42.872;74.622;2023-04-25T03:34:23;97.80;;;14.80;;
52798;SDS011;38667;42.872;74.622;2023-04-25T03:36:49;33.10;;;11.30;;
52798;SDS011;38667;42.872;74.622;2023-04-25T03:39:17;53.63;;;10.18;;
52798;SDS011;38667;42.872;74.622;2023-04-25T03:41:43;27.95;;;9.52;;
52798;SDS011;38667;42.872;74.622;2023-04-25T03:44:10;27.75;;;10.40;;
52798;SDS011;38667;42.872;74.622;2023-04-25T03:46:36;25.25;;;8.63;;
52798;SDS011;38667;42.872;74.622;2023-04-25T03:49:02;16.58;;;7.13;;
52798;SDS011;38667;42.872;74.622;2023-04-25T03:51:29;12.20;;;7.07;;
52798;SDS011;38667;42.872;74.622;2023-04-25T03:53:55;20.95;;;7.43;;
52798;SDS011;38667;42.872;74.622;2023-04-25T03:56:23;9.43;;;6.45;;
52798;SDS011;38667;42.872;74.622;2023-04-25T03:58:49;20.25;;;7.95;;
52798;SDS011;38667;42.872;74.622;2023-04-25T04:01:16;16.35;;;7.05;;
52798;SDS011;38667;42.872;74.622;2023-04-25T04:03:42;17.83;;;7.07;;
52798;SDS011;38667;42.872;74.622;2023-04-25T04:06:08;17.17;;;6.50;;
52798;SDS011;38667;42.872;74.622;2023-04-25T04:08:35;15.55;;;5.75;;
52798;SDS011;38667;42.872;74.622;2023-04-25T04:11:01;11.85;;;5.90;;
52798;SDS011;38667;42.872;74.622;2023-04-25T04:13:29;16.02;;;7.35;;
52798;SDS011;38667;42.872;74.622;2023-04-25T04:15:55;14.18;;;6.20;;
52798;SDS011;38667;42.872;74.622;2023-04-25T04:18:22;9.90;;;5.28;;
52798;SDS011;38667;42.872;74.622;2023-04-25T04:20:48;15.93;;;5.40;;
52798;SDS011;38667;42.872;74.622;2023-04-25T04:23:15;14.18;;;5.43;;
52798;SDS011;38667;42.872;74.622;2023-04-25T04:25:41;12.10;;;4.97;;
52798;SDS011;38667;42.872;74.622;2023-04-25T04:28:07;11.50;;;4.43;;
52798;SDS011;38667;42.872;74.622;2023-04-25T04:30:35;11.65;;;5.07;;
52798;SDS011;38667;42.872;74.622;2023-04-25T04:33:02;10.82;;;4.50;;
52798;SDS011;38667;42.872;74.622;2023-04-25T04:35:28;13.48;;;4.22;;
52798;SDS011;38667;42.872;74.622;2023-04-25T04:37:54;11.85;;;4.32;;
52798;SDS011;38667;42.872;74.622;2023-04-25T04:40:21;8.80;;;4.22;;
52798;SDS011;38667;42.872;74.622;2023-04-25T04:42:47;13.15;;;5.10;;
52798;SDS011;38667;42.872;74.622;2023-04-25T04:45:14;14.93;;;4.30;;
52798;SDS011;38667;42.872;74.622;2023-04-25T04:47:42;10.00;;;4.07;;
52798;SDS011;38667;42.872;74.622;2023-04-25T04:50:08;18.83;;;4.43;;
52798;SDS011;38667;42.872;74.622;2023-04-25T04:52:35;10.80;;;3.90;;
52798;SDS011;38667;42.872;74.622;2023-04-25T04:55:02;10.13;;;3.72;;
52798;SDS011;38667;42.872;74.622;2023-04-25T04:57:29;7.13;;;3.53;;
52798;SDS011;38667;42.872;74.622;2023-04-25T04:59:56;10.02;;;3.67;;
52798;SDS011;38667;42.872;74.622;2023-04-25T05:02:22;14.77;;;4.30;;
52798;SDS011;38667;42.872;74.622;2023-04-25T05:04:50;13.63;;;4.05;;
52798;SDS011;38667;42.872;74.622;2023-04-25T05:07:16;8.98;;;3.63;;
52798;SDS011;38667;42.872;74.622;2023-04-25T05:09:43;15.10;;;4.10;;
52798;SDS011;38667;42.872;74.622;2023-04-25T05:12:09;11.02;;;3.50;;
52798;SDS011;38667;42.872;74.622;2023-04-25T05:14:35;10.80;;;3.60;;
52798;SDS011;38667;42.872;74.622;2023-04-25T05:17:02;9.82;;;3.53;;
52798;SDS011;38667;42.872;74.622;2023-04-25T05:19:28;9.93;;;3.40;;
52798;SDS011;38667;42.872;74.622;2023-04-25T05:21:56;11.70;;;4.55;;
52798;SDS011;38667;42.872;74.622;2023-04-25T05:24:22;8.38;;;3.78;;
52798;SDS011;38667;42.872;74.622;2023-04-25T05:26:49;11.85;;;3.45;;
52798;SDS011;38667;42.872;74.622;2023-04-25T05:29:15;10.77;;;3.80;;
52798;SDS011;38667;42.872;74.622;2023-04-25T05:31:41;12.85;;;4.05;;
52798;SDS011;38667;42.872;74.622;2023-04-25T05:34:08;11.73;;;4.28;;
52798;SDS011;38667;42.872;74.622;2023-04-25T05:36:34;21.08;;;4.85;;
52798;SDS011;38667;42.872;74.622;2023-04-25T05:39:02;24.23;;;6.75;;
52798;SDS011;38667;42.872;74.622;2023-04-25T05:41:28;18.25;;;5.35;;
52798;SDS011;38667;42.872;74.622;2023-04-25T05:43:54;19.80;;;5.32;;
52798;SDS011;38667;42.872;74.622;2023-04-25T05:46:21;18.48;;;5.57;;
52798;SDS011;38667;42.872;74.622;2023-04-25T05:48:47;24.90;;;5.97;;
52798;SDS011;38667;42.872;74.622;2023-04-25T05:51:13;20.23;;;6.10;;
52798;SDS011;38667;42.872;74.622;2023-04-25T05:53:39;19.75;;;5.80;;
52798;SDS011;38667;42.872;74.622;2023-04-25T05:56:07;26.15;;;6.43;;
52798;SDS011;38667;42.872;74.622;2023-04-25T05:58:33;21.10;;;4.80;;
52798;SDS011;38667;42.872;74.622;2023-04-25T06:01:00;20.80;;;4.80;;
52798;SDS011;38667;42.872;74.622;2023-04-25T06:03:26;25.10;;;5.45;;
52798;SDS011;38667;42.872;74.622;2023-04-25T06:05:53;21.77;;;5.22;;
52798;SDS011;38667;42.872;74.622;2023-04-25T06:08:19;13.18;;;4.45;;
52798;SDS011;38667;42.872;74.622;2023-04-25T06:10:45;14.45;;;3.40;;
52798;SDS011;38667;42.872;74.622;2023-04-25T06:13:13;22.17;;;5.07;;
52798;SDS011;38667;42.872;74.622;2023-04-25T06:15:40;24.90;;;5.20;;
52798;SDS011;38667;42.872;74.622;2023-04-25T06:18:06;21.17;;;5.60;;
52798;SDS011;38667;42.872;74.622;2023-04-25T06:20:32;36.22;;;7.10;;
52798;SDS011;38667;42.872;74.622;2023-04-25T06:22:59;31.08;;;6.43;;
52798;SDS011;38667;42.872;74.622;2023-04-25T06:25:25;27.33;;;6.20;;
52798;SDS011;38667;42.872;74.622;2023-04-25T06:27:51;32.50;;;7.22;;
52798;SDS011;38667;42.872;74.622;2023-04-25T06:30:19;31.55;;;6.40;;
52798;SDS011;38667;42.872;74.622;2023-04-25T06:32:46;31.42;;;6.97;;
52798;SDS011;38667;42.872;74.622;2023-04-25T06:35:12;34.78;;;6.97;;
52798;SDS011;38667;42.872;74.622;2023-04-25T06:37:38;35.65;;;7.75;;
52798;SDS011;38667;42.872;74.622;2023-04-25T06:40:05;36.00;;;8.25;;
52798;SDS011;38667;42.872;74.622;2023-04-25T06:42:32;32.88;;;7.32;;
52798;SDS011;38667;42.872;74.622;2023-04-25T06:44:59;22.25;;;5.15;;
52798;SDS011;38667;42.872;74.622;2023-04-25T06:47:26;22.63;;;5.30;;
52798;SDS011;38667;42.872;74.622;2023-04-25T06:49:53;24.40;;;5.45;;
52798;SDS011;38667;42.872;74.622;2023-04-25T06:52:19;27.90;;;4.93;;
52798;SDS011;38667;42.872;74.622;2023-04-25T06:54:45;23.02;;;4.57;;
52798;SDS011;38667;42.872;74.622;2023-04-25T06:57:12;19.00;;;4.15;;
52798;SDS011;38667;42.872;74.622;2023-04-25T06:59:38;15.75;;;3.60;;
52798;SDS011;38667;42.872;74.622;2023-04-25T07:02:05;17.63;;;4.07;;
52798;SDS011;38667;42.872;74.622;2023-04-25T07:04:33;13.02;;;3.63;;
52798;SDS011;38667;42.872;74.622;2023-04-25T07:06:59;20.58;;;4.20;;
52798;SDS011;38667;42.872;74.622;2023-04-25T07:09:26;19.17;;;3.92;;
52798;SDS011;38667;42.872;74.622;2023-04-25T07:11:52;15.48;;;4.28;;
52798;SDS011;38667;42.872;74.622;2023-04-25T07:14:18;18.33;;;4.18;;
52798;SDS011;38667;42.872;74.622;2023-04-25T07:16:45;11.23;;;3.60;;
52798;SDS011;38667;42.872;74.622;2023-04-25T07:19:11;14.48;;;3.53;;
52798;SDS011;38667;42.872;74.622;2023-04-25T07:21:39;11.02;;;3.13;;
52798;SDS011;38667;42.872;74.622;2023-04-25T07:24:05;12.85;;;3.17;;
52798;SDS011;38667;42.872;74.622;2023-04-25T07:26:32;8.25;;;3.00;;
52798;SDS011;38667;42.872;74.622;2023-04-25T07:28:58;7.50;;;2.90;;
52798;SDS011;38667;42.872;74.622;2023-04-25T07:31:24;13.00;;;2.42;;
52798;SDS011;38667;42.872;74.622;2023-04-25T07:33:51;12.55;;;2.00;;
52798;SDS011;38667;42.872;74.622;2023-04-25T07:36:17;9.38;;;2.92;;
52798;SDS011;38667;42.872;74.622;2023-04-25T07:38:45;11.80;;;2.85;;
52798;SDS011;38667;42.872;74.622;2023-04-25T07:41:11;11.05;;;2.28;;
52798;SDS011;38667;42.872;74.622;2023-04-25T07:43:38;10.88;;;2.70;;
52798;SDS011;38667;42.872;74.622;2023-04-25T07:46:04;14.68;;;2.63;;
52798;SDS011;38667;42.872;74.622;2023-04-25T07:48:30;9.27;;;2.20;;
52798;SDS011;38667;42.872;74.622;2023-04-25T07:50:56;23.95;;;2.92;;
52798;SDS011;38667;42.872;74.622;2023-04-25T07:53:23;14.02;;;2.88;;
52798;SDS011;38667;42.872;74.622;2023-04-25T07:55:51;11.18;;;2.70;;
52798;SDS011;38667;42.872;74.622;2023-04-25T07:58:17;8.75;;;2.20;;
52798;SDS011;38667;42.872;74.622;2023-04-25T08:00:44;7.82;;;3.00;;
52798;SDS011;38667;42.872;74.622;2023-04-25T08:03:10;8.18;;;3.40;;
52798;SDS011;38667;42.872;74.622;2023-04-25T08:05:36;12.43;;;3.00;;
52798;SDS011;38667;42.872;74.622;2023-04-25T08:08:03;11.50;;;2.28;;
52798;SDS011;38667;42.872;74.622;2023-04-25T08:10:29;11.48;;;2.80;;
52798;SDS011;38667;42.872;74.622;2023-04-25T08:12:57;15.77;;;3.30;;
52798;SDS011;38667;42.872;74.622;2023-04-25T08:15:23;8.77;;;2.38;;
52798;SDS011;38667;42.872;74.622;2023-04-25T08:17:50;10.25;;;3.38;;
52798;SDS011;38667;42.872;74.622;2023-04-25T08:20:16;11.20;;;2.35;;
52798;SDS011;38667;42.872;74.622;2023-04-25T08:22:42;10.27;;;2.70;;
52798;SDS011;38667;42.872;74.622;2023-04-25T08:25:09;13.60;;;2.78;;
52798;SDS011;38667;42.872;74.622;2023-04-25T08:27:35;10.95;;;2.13;;
52798;SDS011;38667;42.872;74.622;2023-04-25T08:30:03;6.65;;;2.28;;
52798;SDS011;38667;42.872;74.622;2023-04-25T08:32:30;8.88;;;2.60;;
52798;SDS011;38667;42.872;74.622;2023-04-25T08:34:57;10.88;;;2.25;;
52798;SDS011;38667;42.872;74.622;2023-04-25T08:37:23;6.00;;;2.53;;
52798;SDS011;38667;42.872;74.622;2023-04-25T08:39:49;11.05;;;2.92;;
52798;SDS011;38667;42.872;74.622;2023-04-25T08:42:16;8.30;;;2.40;;
52798;SDS011;38667;42.872;74.622;2023-04-25T08:44:43;14.88;;;3.00;;
52798;SDS011;38667;42.872;74.622;2023-04-25T08:47:12;13.27;;;2.53;;
52798;SDS011;38667;42.872;74.622;2023-04-25T08:49:38;6.68;;;2.42;;
52798;SDS011;38667;42.872;74.622;2023-04-25T08:52:07;9.35;;;2.60;;
52798;SDS011;38667;42.872;74.622;2023-04-25T08:54:36;8.02;;;2.40;;
52798;SDS011;38667;42.872;74.622;2023-04-25T08:57:07;12.65;;;3.03;;
52798;SDS011;38667;42.872;74.622;2023-04-25T08:59:33;8.80;;;2.08;;
52798;SDS011;38667;42.872;74.622;2023-04-25T09:02:00;7.28;;;2.30;;
52798;SDS011;38667;42.872;74.622;2023-04-25T09:04:28;8.98;;;2.50;;
52798;SDS011;38667;42.872;74.622;2023-04-25T09:06:55;12.48;;;2.17;;
52798;SDS011;38667;42.872;74.622;2023-04-25T09:09:22;11.48;;;2.40;;
52798;SDS011;38667;42.872;74.622;2023-04-25T09:11:49;14.63;;;2.60;;
52798;SDS011;38667;42.872;74.622;2023-04-25T09:14:16;13.13;;;3.30;;
52798;SDS011;38667;42.872;74.622;2023-04-25T09:16:59;14.98;;;2.85;;
52798;SDS011;38667;42.872;74.622;2023-04-25T09:19:28;11.65;;;2.80;;
52798;SDS011;38667;42.872;74.622;2023-04-25T09:21:55;9.32;;;2.75;;
52798;SDS011;38667;42.872;74.622;2023-04-25T09:24:30;7.68;;;2.50;;
52798;SDS011;38667;42.872;74.622;2023-04-25T09:26:57;6.07;;;2.38;;
52798;SDS011;38667;42.872;74.622;2023-04-25T09:29:28;7.28;;;2.80;;
52798;SDS011;38667;42.872;74.622;2023-04-25T09:32:03;12.77;;;3.15;;
52798;SDS011;38667;42.872;74.622;2023-04-25T09:34:40;9.98;;;3.20;;
52798;SDS011;38667;42.872;74.622;2023-04-25T09:37:07;9.93;;;2.88;;
52798;SDS011;38667;42.872;74.622;2023-04-25T09:39:34;10.15;;;2.63;;
52798;SDS011;38667;42.872;74.622;2023-04-25T09:42:00;10.40;;;3.15;;
52798;SDS011;38667;42.872;74.622;2023-04-25T09:44:27;12.07;;;2.53;;
52798;SDS011;38667;42.872;74.622;2023-04-25T09:46:54;10.25;;;2.22;;
52798;SDS011;38667;42.872;74.622;2023-04-25T09:49:20;12.70;;;2.90;;
52798;SDS011;38667;42.872;74.622;2023-04-25T09:51:55;7.38;;;2.10;;
52798;SDS011;38667;42.872;74.622;2023-04-25T09:54:21;13.23;;;3.67;;
52798;SDS011;38667;42.872;74.622;2023-04-25T09:56:48;13.55;;;3.45;;
52798;SDS011;38667;42.872;74.622;2023-04-25T09:59:17;6.60;;;2.50;;
52798;SDS011;38667;42.872;74.622;2023-04-25T10:01:45;12.73;;;2.78;;
52798;SDS011;38667;42.872;74.622;2023-04-25T10:04:13;8.05;;;2.58;;
52798;SDS011;38667;42.872;74.622;2023-04-25T10:06:44;7.93;;;2.42;;
52798;SDS011;38667;42.872;74.622;2023-04-25T10:09:14;10.20;;;2.33;;
52798;SDS011;38667;42.872;74.622;2023-04-25T10:11:41;7.00;;;2.33;;
52798;SDS011;38667;42.872;74.622;2023-04-25T10:14:08;6.80;;;2.85;;
52798;SDS011;38667;42.872;74.622;2023-04-25T10:16:36;6.60;;;2.33;;
52798;SDS011;38667;42.872;74.622;2023-04-25T10:19:03;8.35;;;2.95;;
52798;SDS011;38667;42.872;74.622;2023-04-25T10:21:30;13.40;;;2.72;;
52798;SDS011;38667;42.872;74.622;2023-04-25T10:23:59;7.07;;;2.00;;
52798;SDS011;38667;42.872;74.622;2023-04-25T10:26:27;7.80;;;1.90;;
52798;SDS011;38667;42.872;74.622;2023-04-25T10:28:58;12.50;;;2.22;;
52798;SDS011;38667;42.872;74.622;2023-04-25T10:31:25;7.60;;;2.17;;
52798;SDS011;38667;42.872;74.622;2023-04-25T10:33:52;7.60;;;2.00;;
52798;SDS011;38667;42.872;74.622;2023-04-25T10:36:19;11.02;;;1.95;;
52798;SDS011;38667;42.872;74.622;2023-04-25T10:38:47;9.20;;;2.53;;
52798;SDS011;38667;42.872;74.622;2023-04-25T10:41:14;11.02;;;2.65;;
52798;SDS011;38667;42.872;74.622;2023-04-25T10:43:44;5.70;;;2.22;;
52798;SDS011;38667;42.872;74.622;2023-04-25T10:46:18;14.60;;;2.45;;
52798;SDS011;38667;42.872;74.622;2023-04-25T10:48:47;9.25;;;3.00;;
52798;SDS011;38667;42.872;74.622;2023-04-25T10:51:16;6.05;;;2.03;;
52798;SDS011;38667;42.872;74.622;2023-04-25T10:53:46;6.78;;;2.05;;
52798;SDS011;38667;42.872;74.622;2023-04-25T10:56:22;3.75;;;1.83;;
52798;SDS011;38667;42.872;74.622;2023-04-25T10:58:52;7.68;;;2.42;;
52798;SDS011;38667;42.872;74.622;2023-04-25T11:01:30;7.28;;;3.05;;
52798;SDS011;38667;42.872;74.622;2023-04-25T11:04:02;6.82;;;2.15;;
52798;SDS011;38667;42.872;74.622;2023-04-25T11:06:29;6.47;;;2.00;;
52798;SDS011;38667;42.872;74.622;2023-04-25T11:09:00;9.82;;;1.40;;
52798;SDS011;38667;42.872;74.622;2023-04-25T11:11:28;4.25;;;1.30;;
52798;SDS011;38667;42.872;74.622;2023-04-25T11:13:56;4.45;;;1.40;;
52798;SDS011;38667;42.872;74.622;2023-04-25T11:16:23;10.07;;;1.55;;
52798;SDS011;38667;42.872;74.622;2023-04-25T11:18:50;9.32;;;1.52;;
52798;SDS011;38667;42.872;74.622;2023-04-25T11:21:16;8.55;;;1.85;;
52798;SDS011;38667;42.872;74.622;2023-04-25T11:23:44;5.63;;;2.40;;
52798;SDS011;38667;42.872;74.622;2023-04-25T11:26:12;6.20;;;2.17;;
52798;SDS011;38667;42.872;74.622;2023-04-25T11:28:38;5.00;;;2.33;;
52798;SDS011;38667;42.872;74.622;2023-04-25T11:31:06;7.60;;;2.25;;
52798;SDS011;38667;42.872;74.622;2023-04-25T11:33:32;3.58;;;1.83;;
52798;SDS011;38667;42.872;74.622;2023-04-25T11:35:59;5.72;;;2.33;;
52798;SDS011;38667;42.872;74.622;2023-04-25T11:38:25;2.97;;;1.52;;
52798;SDS011;38667;42.872;74.622;2023-04-25T11:40:52;5.93;;;1.75;;
52798;SDS011;38667;42.872;74.622;2023-04-25T11:43:19;4.50;;;2.00;;
52798;SDS011;38667;42.872;74.622;2023-04-25T11:45:46;8.48;;;2.00;;
52798;SDS011;38667;42.872;74.622;2023-04-25T11:48:15;31.85;;;17.67;;
52798;SDS011;38667;42.872;74.622;2023-04-25T11:50:41;8.05;;;2.88;;
52798;SDS011;38667;42.872;74.622;2023-04-25T11:53:08;5.10;;;2.08;;
52798;SDS011;38667;42.872;74.622;2023-04-25T11:55:34;4.95;;;1.90;;
52798;SDS011;38667;42.872;74.622;2023-04-25T11:58:00;8.80;;;2.05;;
52798;SDS011;38667;42.872;74.622;2023-04-25T12:00:27;9.82;;;2.60;;
52798;SDS011;38667;42.872;74.622;2023-04-25T12:02:54;6.97;;;2.28;;
52798;SDS011;38667;42.872;74.622;2023-04-25T12:05:25;16.23;;;2.63;;
52798;SDS011;38667;42.872;74.622;2023-04-25T12:07:52;12.77;;;3.15;;
52798;SDS011;38667;42.872;74.622;2023-04-25T12:10:20;6.45;;;2.45;;
52798;SDS011;38667;42.872;74.622;2023-04-25T12:12:47;8.93;;;2.45;;
52798;SDS011;38667;42.872;74.622;2023-04-25T12:15:14;4.85;;;2.60;;
52798;SDS011;38667;42.872;74.622;2023-04-25T12:17:41;10.02;;;2.35;;
52798;SDS011;38667;42.872;74.622;2023-04-25T12:20:10;17.45;;;2.72;;
52798;SDS011;38667;42.872;74.622;2023-04-25T12:22:41;6.63;;;2.20;;
52798;SDS011;38667;42.872;74.622;2023-04-25T12:25:09;10.50;;;2.97;;
52798;SDS011;38667;42.872;74.622;2023-04-25T12:27:35;8.10;;;3.58;;
52798;SDS011;38667;42.872;74.622;2023-04-25T12:30:02;12.95;;;4.45;;
52798;SDS011;38667;42.872;74.622;2023-04-25T12:32:29;7.80;;;2.60;;
52798;SDS011;38667;42.872;74.622;2023-04-25T12:34:55;9.70;;;2.60;;
52798;SDS011;38667;42.872;74.622;2023-04-25T12:37:22;6.45;;;2.95;;
52798;SDS011;38667;42.872;74.622;2023-04-25T12:39:50;7.97;;;3.47;;
52798;SDS011;38667;42.872;74.622;2023-04-25T12:42:16;10.80;;;3.33;;
52798;SDS011;38667;42.872;74.622;2023-04-25T12:44:42;10.80;;;5.60;;
52798;SDS011;38667;42.872;74.622;2023-04-25T12:47:08;11.50;;;5.25;;
52798;SDS011;38667;42.872;74.622;2023-04-25T12:49:35;12.68;;;5.38;;
52798;SDS011;38667;42.872;74.622;2023-04-25T12:52:01;15.95;;;4.03;;
52798;SDS011;38667;42.872;74.622;2023-04-25T12:54:28;14.45;;;2.63;;
52798;SDS011;38667;42.872;74.622;2023-04-25T12:56:55;10.85;;;3.22;;
52798;SDS011;38667;42.872;74.622;2023-04-25T12:59:22;10.32;;;2.85;;
52798;SDS011;38667;42.872;74.622;2023-04-25T13:01:48;10.82;;;4.13;;
52798;SDS011;38667;42.872;74.622;2023-04-25T13:04:15;9.23;;;3.30;;
52798;SDS011;38667;42.872;74.622;2023-04-25T13:06:41;15.05;;;3.92;;
52798;SDS011;38667;42.872;74.622;2023-04-25T13:09:08;8.63;;;3.78;;
52798;SDS011;38667;42.872;74.622;2023-04-25T13:11:34;9.35;;;3.92;;
52798;SDS011;38667;42.872;74.622;2023-04-25T13:14:02;8.00;;;3.70;;
52798;SDS011;38667;42.872;74.622;2023-04-25T13:16:28;13.13;;;4.35;;
52798;SDS011;38667;42.872;74.622;2023-04-25T13:18:54;15.10;;;5.00;;
52798;SDS011;38667;42.872;74.622;2023-04-25T13:21:21;13.50;;;4.20;;
52798;SDS011;38667;42.872;74.622;2023-04-25T13:23:47;8.75;;;3.97;;
52798;SDS011;38667;42.872;74.622;2023-04-25T13:26:13;11.73;;;4.20;;
52798;SDS011;38667;42.872;74.622;2023-04-25T13:28:40;11.45;;;3.92;;
52798;SDS011;38667;42.872;74.622;2023-04-25T13:31:08;21.85;;;4.45;;
52798;SDS011;38667;42.872;74.622;2023-04-25T13:33:34;12.27;;;4.10;;
52798;SDS011;38667;42.872;74.622;2023-04-25T13:36:00;10.65;;;3.88;;
52798;SDS011;38667;42.872;74.622;2023-04-25T13:38:27;8.02;;;3.08;;
52798;SDS011;38667;42.872;74.622;2023-04-25T13:40:53;10.07;;;4.57;;
52798;SDS011;38667;42.872;74.622;2023-04-25T13:43:20;14.15;;;4.75;;
52798;SDS011;38667;42.872;74.622;2023-04-25T13:45:46;11.73;;;4.43;;
52798;SDS011;38667;42.872;74.622;2023-04-25T13:48:14;11.00;;;3.88;;
52798;SDS011;38667;42.872;74.622;2023-04-25T13:50:41;9.82;;;3.95;;
52798;SDS011;38667;42.872;74.622;2023-04-25T13:53:07;9.75;;;3.30;;
52798;SDS011;38667;42.872;74.622;2023-04-25T13:55:34;8.05;;;3.92;;
52798;SDS011;38667;42.872;74.622;2023-04-25T13:58:00;11.23;;;3.33;;
52798;SDS011;38667;42.872;74.622;2023-04-25T14:00:27;8.80;;;4.00;;
52798;SDS011;38667;42.872;74.622;2023-04-25T14:02:53;13.48;;;3.70;;
52798;SDS011;38667;42.872;74.622;2023-04-25T14:05:21;17.05;;;5.00;;
52798;SDS011;38667;42.872;74.622;2023-04-25T14:07:47;21.50;;;5.65;;
52798;SDS011;38667;42.872;74.622;2023-04-25T14:10:13;14.95;;;6.55;;
52798;SDS011;38667;42.872;74.622;2023-04-25T14:12:40;24.42;;;5.75;;
52798;SDS011;38667;42.872;74.622;2023-04-25T14:15:06;16.58;;;5.07;;
52798;SDS011;38667;42.872;74.622;2023-04-25T14:17:33;16.13;;;5.40;;
52798;SDS011;38667;42.872;74.622;2023-04-25T14:19:59;15.30;;;4.75;;
52798;SDS011;38667;42.872;74.622;2023-04-25T14:22:27;13.57;;;5.55;;